createdAt,value
2022-11-25T00:00:26.452Z,994.44
2022-11-25T00:01:26.455Z,994.47
2022-11-25T00:02:26.619Z,994.49
2022-11-25T00:03:26.495Z,994.46
2022-11-25T00:04:26.403Z,994.42
2022-11-25T00:05:26.394Z,994.47
2022-11-25T00:06:26.405Z,994.49
2022-11-25T00:07:26.398Z,994.45
2022-11-25T00:08:26.373Z,994.45
2022-11-25T00:09:26.365Z,994.43
2022-11-25T00:10:26.345Z,994.43
2022-11-25T00:11:26.349Z,994.39
2022-11-25T00:12:26.363Z,994.40
2022-11-25T00:13:26.316Z,994.39
2022-11-25T00:14:26.308Z,994.43
2022-11-25T00:15:26.296Z,994.44
2022-11-25T00:16:26.403Z,994.42
2022-11-25T00:17:26.277Z,994.48
2022-11-25T00:18:26.268Z,994.44
2022-11-25T00:19:26.257Z,994.43
2022-11-25T00:20:26.247Z,994.43
2022-11-25T00:21:26.256Z,994.42
2022-11-25T00:22:26.228Z,994.39
2022-11-25T00:23:31.890Z,994.41
2022-11-25T00:24:27.208Z,994.39
2022-11-25T00:25:26.189Z,994.39
2022-11-25T00:26:26.209Z,994.34
2022-11-25T00:27:26.191Z,994.35
2022-11-25T00:28:26.171Z,994.34
2022-11-25T00:29:26.219Z,994.35
2022-11-25T00:30:26.149Z,994.35
2022-11-25T00:31:26.198Z,994.28
2022-11-25T00:32:26.128Z,994.29
2022-11-25T00:33:26.111Z,994.33
2022-11-25T00:34:26.118Z,994.30
2022-11-25T00:35:26.093Z,994.29
2022-11-25T00:36:26.122Z,994.35
2022-11-25T00:37:26.083Z,994.34
2022-11-25T00:38:26.072Z,994.30
2022-11-25T00:39:26.054Z,994.35
2022-11-25T00:40:26.050Z,994.34
2022-11-25T00:41:26.052Z,994.33
2022-11-25T00:42:26.033Z,994.31
2022-11-25T00:43:26.033Z,994.32
2022-11-25T00:44:26.003Z,994.30
2022-11-25T00:45:26.033Z,994.28
2022-11-25T00:46:26.004Z,994.25
2022-11-25T00:47:25.976Z,994.31
2022-11-25T00:48:25.975Z,994.30
2022-11-25T00:49:25.955Z,994.27
2022-11-25T00:50:25.945Z,994.36
2022-11-25T00:51:25.955Z,994.35
2022-11-25T00:52:25.929Z,994.33
2022-11-25T00:53:25.917Z,994.34
2022-11-25T00:54:25.906Z,994.35
2022-11-25T00:55:25.895Z,994.39
2022-11-25T00:56:25.906Z,994.41
2022-11-25T00:57:25.871Z,994.41
2022-11-25T00:58:25.869Z,994.33
2022-11-25T00:59:25.848Z,994.36
2022-11-25T01:00:25.849Z,994.39
2022-11-25T01:01:25.911Z,994.34
2022-11-25T01:02:25.857Z,994.30
2022-11-25T01:03:25.817Z,994.36
2022-11-25T01:04:25.810Z,994.38
2022-11-25T01:05:25.795Z,994.34
2022-11-25T01:06:25.799Z,994.39
2022-11-25T01:07:25.843Z,994.29
2022-11-25T01:08:25.768Z,994.28
2022-11-25T01:09:25.753Z,994.31
2022-11-25T01:10:25.750Z,994.33
2022-11-25T01:11:25.749Z,994.28
2022-11-25T01:12:25.731Z,994.30
2022-11-25T01:13:25.721Z,994.29
2022-11-25T01:14:25.702Z,994.30
2022-11-25T01:15:25.692Z,994.34
2022-11-25T01:16:25.749Z,994.30
2022-11-25T01:17:25.680Z,994.35
2022-11-25T01:18:25.670Z,994.34
2022-11-25T01:19:25.651Z,994.34
2022-11-25T01:20:25.652Z,994.39
2022-11-25T01:21:25.645Z,994.38
2022-11-25T01:22:25.633Z,994.38
2022-11-25T01:23:25.613Z,994.38
2022-11-25T01:24:25.603Z,994.40
2022-11-25T01:25:25.591Z,994.36
2022-11-25T01:26:25.604Z,994.42
2022-11-25T01:27:25.565Z,994.42
2022-11-25T01:28:25.565Z,994.36
2022-11-25T01:29:25.546Z,994.41
2022-11-25T01:30:25.545Z,994.40
2022-11-25T01:31:25.573Z,994.39
2022-11-25T01:32:25.525Z,994.42
2022-11-25T01:33:25.506Z,994.41
2022-11-25T01:34:25.504Z,994.41
2022-11-25T01:35:25.486Z,994.36
2022-11-25T01:36:25.505Z,994.37
2022-11-25T01:37:25.469Z,994.38
2022-11-25T01:38:25.458Z,994.41
2022-11-25T01:39:31.693Z,994.44
2022-11-25T01:40:26.466Z,994.40
2022-11-25T01:41:25.448Z,994.41
2022-11-25T01:42:25.419Z,994.39
2022-11-25T01:43:25.410Z,994.41
2022-11-25T01:44:25.399Z,994.36
2022-11-25T01:45:28.511Z,994.41
2022-11-25T01:46:25.442Z,994.44
2022-11-25T01:47:25.376Z,994.45
2022-11-25T01:48:25.361Z,994.43
2022-11-25T01:49:25.350Z,994.38
2022-11-25T01:50:25.341Z,994.37
2022-11-25T01:51:25.353Z,994.39
2022-11-25T01:52:25.322Z,994.39
2022-11-25T01:53:25.312Z,994.37
2022-11-25T01:54:25.303Z,994.32
2022-11-25T01:55:25.291Z,994.29
2022-11-25T01:56:25.292Z,994.29
2022-11-25T01:57:25.273Z,994.28
2022-11-25T01:58:25.253Z,994.30
2022-11-25T01:59:25.253Z,994.31
2022-11-25T02:00:25.241Z,994.26
2022-11-25T02:01:25.316Z,994.21
2022-11-25T02:02:25.262Z,994.25
2022-11-25T02:03:25.213Z,994.23
2022-11-25T02:04:25.202Z,994.35
2022-11-25T02:05:28.400Z,994.29
2022-11-25T02:06:26.195Z,994.20
2022-11-25T02:07:25.216Z,994.19
2022-11-25T02:08:25.175Z,994.15
2022-11-25T02:09:25.156Z,994.20
2022-11-25T02:10:25.144Z,994.20
2022-11-25T02:11:25.146Z,994.20
2022-11-25T02:12:25.116Z,994.14
2022-11-25T02:13:25.115Z,994.16
2022-11-25T02:14:25.096Z,994.18
2022-11-25T02:15:25.096Z,994.19
2022-11-25T02:16:25.215Z,994.16
2022-11-25T02:17:25.079Z,994.19
2022-11-25T02:18:25.080Z,994.18
2022-11-25T02:19:25.049Z,994.16
2022-11-25T02:20:25.048Z,994.13
2022-11-25T02:21:25.050Z,994.14
2022-11-25T02:22:25.019Z,994.20
2022-11-25T02:23:25.010Z,994.23
2022-11-25T02:24:24.990Z,994.17
2022-11-25T02:25:24.992Z,994.20
2022-11-25T02:26:25.012Z,994.19
2022-11-25T02:27:24.969Z,994.17
2022-11-25T02:28:24.960Z,994.17
2022-11-25T02:29:24.951Z,994.17
2022-11-25T02:30:24.941Z,994.14
2022-11-25T02:31:25.024Z,994.12
2022-11-25T02:32:24.919Z,994.13
2022-11-25T02:33:24.912Z,994.11
2022-11-25T02:34:24.901Z,994.11
2022-11-25T02:35:24.892Z,994.11
2022-11-25T02:36:24.892Z,994.16
2022-11-25T02:37:24.872Z,994.11
2022-11-25T02:38:24.855Z,994.10
2022-11-25T02:39:24.852Z,994.05
2022-11-25T02:40:24.833Z,994.03
2022-11-25T02:41:24.854Z,994.05
2022-11-25T02:42:24.815Z,994.00
2022-11-25T02:43:24.815Z,993.98
2022-11-25T02:44:24.794Z,993.98
2022-11-25T02:45:24.819Z,993.96
2022-11-25T02:46:24.841Z,993.91
2022-11-25T02:47:24.776Z,993.94
2022-11-25T02:48:40.066Z,993.92
2022-11-25T02:49:25.747Z,993.90
2022-11-25T02:50:24.739Z,993.88
2022-11-25T02:51:24.754Z,993.91
2022-11-25T02:52:24.714Z,993.93
2022-11-25T02:53:24.708Z,993.89
2022-11-25T02:54:24.696Z,993.87
2022-11-25T02:55:24.687Z,993.86
2022-11-25T02:56:24.693Z,993.81
2022-11-25T02:57:24.674Z,993.88
2022-11-25T02:58:24.657Z,993.79
2022-11-25T02:59:24.651Z,993.85
2022-11-25T03:00:24.640Z,993.88
2022-11-25T03:01:24.738Z,993.92
2022-11-25T03:02:24.698Z,993.84
2022-11-25T03:03:24.616Z,993.82
2022-11-25T03:04:24.591Z,993.84
2022-11-25T03:05:24.589Z,993.85
2022-11-25T03:06:24.589Z,993.79
2022-11-25T03:07:24.601Z,993.87
2022-11-25T03:08:24.560Z,993.91
2022-11-25T03:09:24.552Z,993.89
2022-11-25T03:10:24.535Z,993.89
2022-11-25T03:11:24.551Z,993.93
2022-11-25T03:12:24.526Z,993.86
2022-11-25T03:13:24.512Z,993.84
2022-11-25T03:14:24.492Z,993.84
2022-11-25T03:15:24.491Z,993.94
2022-11-25T03:16:24.558Z,993.87
2022-11-25T03:17:24.475Z,993.87
2022-11-25T03:18:24.463Z,993.93
2022-11-25T03:19:24.452Z,993.88
2022-11-25T03:20:24.436Z,993.85
2022-11-25T03:21:24.466Z,993.82
2022-11-25T03:22:24.413Z,993.84
2022-11-25T03:23:24.405Z,993.88
2022-11-25T03:24:24.396Z,993.86
2022-11-25T03:25:24.393Z,993.87
2022-11-25T03:26:24.396Z,993.89
2022-11-25T03:27:26.162Z,993.83
2022-11-25T03:28:24.359Z,993.93
2022-11-25T03:29:24.347Z,993.91
2022-11-25T03:30:24.351Z,993.91
2022-11-25T03:31:24.387Z,993.89
2022-11-25T03:32:24.325Z,993.88
2022-11-25T03:33:24.308Z,993.85
2022-11-25T03:34:24.289Z,993.85
2022-11-25T03:35:24.289Z,993.82
2022-11-25T03:36:24.294Z,993.85
2022-11-25T03:37:24.337Z,993.83
2022-11-25T03:38:24.250Z,993.88
2022-11-25T03:39:24.250Z,993.89
2022-11-25T03:40:24.232Z,993.87
2022-11-25T03:41:24.248Z,993.88
2022-11-25T03:42:24.220Z,993.82
2022-11-25T03:43:24.201Z,993.94
2022-11-25T03:44:24.191Z,993.93
2022-11-25T03:45:24.189Z,993.89
2022-11-25T03:46:24.247Z,993.86
2022-11-25T03:47:24.171Z,993.88
2022-11-25T03:48:24.153Z,993.91
2022-11-25T03:49:24.145Z,993.89
2022-11-25T03:50:24.141Z,993.92
2022-11-25T03:51:24.130Z,993.89
2022-11-25T03:52:24.124Z,993.87
2022-11-25T03:53:24.111Z,993.91
2022-11-25T03:54:24.093Z,993.88
2022-11-25T03:55:24.087Z,993.85
2022-11-25T03:56:24.071Z,993.89
2022-11-25T03:57:24.083Z,993.96
2022-11-25T03:58:24.062Z,993.94
2022-11-25T03:59:24.045Z,993.93
2022-11-25T04:00:24.034Z,993.98
2022-11-25T04:01:24.052Z,993.88
2022-11-25T04:02:24.059Z,993.95
2022-11-25T04:03:24.008Z,993.94
2022-11-25T04:04:23.986Z,993.87
2022-11-25T04:05:23.993Z,993.93
2022-11-25T04:06:23.974Z,993.89
2022-11-25T04:07:24.032Z,993.90
2022-11-25T04:08:23.958Z,993.88
2022-11-25T04:09:23.945Z,993.87
2022-11-25T04:10:23.929Z,993.90
2022-11-25T04:11:23.927Z,993.82
2022-11-25T04:12:23.929Z,993.87
2022-11-25T04:13:23.908Z,993.92
2022-11-25T04:14:23.889Z,993.97
2022-11-25T04:15:23.889Z,993.99
2022-11-25T04:16:23.956Z,993.98
2022-11-25T04:17:23.880Z,994.00
2022-11-25T04:18:23.850Z,993.99
2022-11-25T04:19:23.840Z,993.99
2022-11-25T04:20:23.833Z,993.99
2022-11-25T04:21:23.832Z,994.04
2022-11-25T04:22:23.830Z,993.97
2022-11-25T04:23:23.807Z,994.04
2022-11-25T04:24:23.790Z,993.99
2022-11-25T04:25:23.810Z,993.99
2022-11-25T04:26:23.770Z,993.97
2022-11-25T04:27:23.785Z,993.90
2022-11-25T04:28:23.751Z,993.95
2022-11-25T04:29:23.744Z,993.93
2022-11-25T04:30:23.732Z,993.89
2022-11-25T04:31:23.726Z,993.89
2022-11-25T04:32:23.725Z,993.94
2022-11-25T04:33:23.704Z,993.97
2022-11-25T04:34:23.684Z,993.89
2022-11-25T04:35:23.685Z,993.88
2022-11-25T04:36:23.674Z,993.92
2022-11-25T04:37:23.679Z,993.95
2022-11-25T04:38:23.648Z,993.98
2022-11-25T04:39:23.642Z,994.01
2022-11-25T04:40:23.641Z,994.03
2022-11-25T04:41:23.615Z,994.03
2022-11-25T04:42:23.627Z,994.01
2022-11-25T04:43:23.606Z,994.03
2022-11-25T04:44:23.587Z,994.09
2022-11-25T04:45:24.197Z,994.02
2022-11-25T04:46:23.657Z,994.01
2022-11-25T04:47:23.575Z,993.99
2022-11-25T04:48:23.558Z,994.00
2022-11-25T04:49:23.537Z,994.02
2022-11-25T04:50:23.532Z,994.03
2022-11-25T04:51:23.519Z,994.01
2022-11-25T04:52:23.542Z,994.08
2022-11-25T04:53:23.499Z,994.00
2022-11-25T04:54:23.500Z,994.04
2022-11-25T04:55:23.482Z,994.01
2022-11-25T04:56:23.479Z,994.03
2022-11-25T04:57:23.470Z,994.10
2022-11-25T04:58:23.452Z,994.06
2022-11-25T04:59:23.437Z,994.09
2022-11-25T05:00:23.431Z,994.09
2022-11-25T05:01:23.471Z,994.04
2022-11-25T05:02:23.499Z,994.08
2022-11-25T05:03:23.392Z,994.11
2022-11-25T05:04:23.394Z,994.08
2022-11-25T05:05:23.373Z,994.13
2022-11-25T05:06:23.374Z,994.13
2022-11-25T05:07:23.420Z,994.12
2022-11-25T05:08:23.360Z,994.12
2022-11-25T05:09:23.342Z,994.14
2022-11-25T05:10:23.333Z,994.14
2022-11-25T05:11:23.337Z,994.13
2022-11-25T05:12:23.324Z,994.12
2022-11-25T05:13:23.302Z,994.17
2022-11-25T05:14:23.293Z,994.16
2022-11-25T05:15:23.274Z,994.21
2022-11-25T05:16:23.285Z,994.17
2022-11-25T05:17:23.279Z,994.21
2022-11-25T05:18:23.246Z,994.16
2022-11-25T05:19:23.237Z,994.14
2022-11-25T05:20:23.236Z,994.12
2022-11-25T05:21:23.217Z,994.13
2022-11-25T05:22:23.227Z,994.14
2022-11-25T05:23:23.198Z,994.14
2022-11-25T05:24:23.188Z,994.11
2022-11-25T05:25:23.177Z,994.13
2022-11-25T05:26:23.168Z,994.13
2022-11-25T05:27:23.180Z,994.16
2022-11-25T05:28:23.151Z,994.13
2022-11-25T05:29:23.137Z,994.17
2022-11-25T05:30:23.130Z,994.13
2022-11-25T05:31:23.118Z,994.14
2022-11-25T05:32:23.131Z,994.13
2022-11-25T05:33:23.091Z,994.18
2022-11-25T05:34:23.089Z,994.16
2022-11-25T05:35:23.071Z,994.12
2022-11-25T05:36:23.079Z,994.12
2022-11-25T05:37:24.682Z,994.10
2022-11-25T05:38:23.074Z,994.07
2022-11-25T05:39:23.040Z,994.14
2022-11-25T05:40:23.030Z,994.07
2022-11-25T05:41:23.012Z,994.09
2022-11-25T05:42:23.030Z,994.10
2022-11-25T05:43:22.994Z,994.08
2022-11-25T05:44:23.407Z,994.06
2022-11-25T05:45:22.973Z,994.09
2022-11-25T05:46:23.009Z,994.10
2022-11-25T05:47:22.971Z,994.07
2022-11-25T05:48:22.954Z,994.10
2022-11-25T05:49:22.934Z,994.07
2022-11-25T05:50:22.944Z,994.13
2022-11-25T05:51:22.916Z,994.17
2022-11-25T05:52:22.942Z,994.19
2022-11-25T05:53:22.896Z,994.30
2022-11-25T05:54:22.887Z,994.19
2022-11-25T05:55:22.889Z,994.19
2022-11-25T05:56:22.867Z,994.17
2022-11-25T05:57:22.884Z,994.16
2022-11-25T05:58:22.847Z,994.14
2022-11-25T05:59:22.835Z,994.10
2022-11-25T06:00:26.510Z,994.15
2022-11-25T06:01:22.816Z,994.08
2022-11-25T06:02:22.903Z,994.08
2022-11-25T06:03:22.881Z,994.08
2022-11-25T06:04:22.797Z,994.10
2022-11-25T06:05:22.777Z,994.10
2022-11-25T06:06:22.775Z,994.11
2022-11-25T06:07:22.810Z,994.09
2022-11-25T06:08:22.748Z,994.14
2022-11-25T06:09:22.731Z,994.08
2022-11-25T06:10:22.728Z,994.06
2022-11-25T06:11:22.721Z,994.08
2022-11-25T06:12:22.712Z,994.04
2022-11-25T06:13:22.710Z,994.01
2022-11-25T06:14:22.697Z,994.08
2022-11-25T06:15:22.681Z,993.99
2022-11-25T06:16:22.706Z,994.04
2022-11-25T06:17:22.659Z,994.01
2022-11-25T06:18:22.672Z,994.08
2022-11-25T06:19:22.641Z,994.01
2022-11-25T06:20:22.675Z,993.97
2022-11-25T06:21:22.625Z,994.05
2022-11-25T06:22:22.612Z,994.06
2022-11-25T06:23:22.623Z,994.08
2022-11-25T06:24:22.593Z,994.08
2022-11-25T06:25:22.575Z,994.13
2022-11-25T06:26:22.571Z,994.16
2022-11-25T06:27:22.553Z,994.11
2022-11-25T06:28:22.567Z,994.13
2022-11-25T06:29:22.534Z,994.16
2022-11-25T06:30:22.532Z,994.12
2022-11-25T06:31:22.635Z,994.12
2022-11-25T06:32:22.471Z,994.17
2022-11-25T06:33:22.464Z,994.15
2022-11-25T06:34:22.485Z,994.09
2022-11-25T06:35:22.477Z,994.04
2022-11-25T06:36:22.469Z,994.04
2022-11-25T06:37:22.407Z,994.06
2022-11-25T06:38:22.426Z,994.07
2022-11-25T06:39:22.390Z,994.03
2022-11-25T06:40:22.437Z,994.06
2022-11-25T06:41:22.420Z,994.04
2022-11-25T06:42:22.359Z,994.05
2022-11-25T06:43:22.357Z,994.05
2022-11-25T06:44:22.338Z,994.03
2022-11-25T06:45:22.322Z,994.02
2022-11-25T06:46:25.167Z,994.06
2022-11-25T06:47:22.298Z,994.14
2022-11-25T06:48:22.309Z,994.14
2022-11-25T06:49:22.280Z,994.18
2022-11-25T06:50:22.279Z,994.26
2022-11-25T06:51:22.265Z,994.25
2022-11-25T06:52:22.262Z,994.29
2022-11-25T06:53:24.189Z,994.22
2022-11-25T06:54:22.231Z,994.22
2022-11-25T06:55:22.212Z,994.25
2022-11-25T06:56:22.220Z,994.21
2022-11-25T06:57:22.193Z,994.23
2022-11-25T06:58:35.345Z,994.25
2022-11-25T06:59:23.172Z,994.21
2022-11-25T07:00:22.180Z,994.18
2022-11-25T07:01:22.223Z,994.24
2022-11-25T07:02:22.180Z,994.22
2022-11-25T07:03:22.200Z,994.25
2022-11-25T07:04:22.135Z,994.20
2022-11-25T07:05:22.122Z,994.23
2022-11-25T07:06:22.111Z,994.18
2022-11-25T07:07:22.153Z,994.25
2022-11-25T07:08:22.115Z,994.26
2022-11-25T07:09:22.077Z,994.29
2022-11-25T07:10:22.094Z,994.27
2022-11-25T07:11:22.064Z,994.29
2022-11-25T07:12:22.047Z,994.30
2022-11-25T07:13:22.053Z,994.30
2022-11-25T07:14:22.037Z,994.33
2022-11-25T07:15:22.016Z,994.37
2022-11-25T07:16:22.095Z,994.45
2022-11-25T07:17:21.998Z,994.40
2022-11-25T07:18:22.010Z,994.45
2022-11-25T07:19:21.997Z,994.46
2022-11-25T07:20:21.976Z,994.40
2022-11-25T07:21:21.958Z,994.48
2022-11-25T07:22:21.951Z,994.44
2022-11-25T07:23:21.950Z,994.44
2022-11-25T07:24:21.937Z,994.44
2022-11-25T07:25:25.410Z,994.45
2022-11-25T07:26:22.920Z,994.43
2022-11-25T07:27:21.901Z,994.46
2022-11-25T07:28:21.911Z,994.41
2022-11-25T07:31:21.828Z,994.48
2022-11-25T07:31:24.713Z,994.45
2022-11-25T07:32:22.639Z,994.48
2022-11-25T07:33:21.900Z,994.52
2022-11-25T07:34:21.830Z,994.54
2022-11-25T07:35:21.820Z,994.57
2022-11-25T07:36:21.812Z,994.56
2022-11-25T07:37:21.794Z,994.58
2022-11-25T07:38:21.804Z,994.60
2022-11-25T07:39:21.774Z,994.62
2022-11-25T07:40:21.772Z,994.64
2022-11-25T07:41:21.755Z,994.68
2022-11-25T07:42:21.751Z,994.72
2022-11-25T07:43:21.748Z,994.67
2022-11-25T07:44:21.733Z,994.66
2022-11-25T07:45:21.717Z,994.74
2022-11-25T07:46:26.437Z,994.71
2022-11-25T07:47:22.700Z,994.66
2022-11-25T07:48:21.706Z,994.71
2022-11-25T07:49:21.676Z,994.69
2022-11-25T07:50:21.678Z,994.74
2022-11-25T07:51:21.657Z,994.80
2022-11-25T07:52:21.665Z,994.82
2022-11-25T07:53:21.651Z,994.76
2022-11-25T07:54:21.629Z,994.77
2022-11-25T07:55:21.618Z,994.84
2022-11-25T07:56:21.629Z,994.84
2022-11-25T07:57:21.589Z,994.88
2022-11-25T07:58:21.610Z,994.88
2022-11-25T07:59:21.575Z,994.88
2022-11-25T08:00:21.600Z,994.82
2022-11-25T08:01:21.599Z,994.83
2022-11-25T08:02:21.574Z,994.78
2022-11-25T08:03:21.594Z,994.82
2022-11-25T08:04:21.536Z,994.77
2022-11-25T08:05:21.520Z,994.89
2022-11-25T08:06:21.513Z,994.77
2022-11-25T08:07:21.524Z,994.74
2022-11-25T08:08:21.513Z,994.76
2022-11-25T08:09:21.472Z,994.82
2022-11-25T08:10:21.474Z,994.84
2022-11-25T08:11:21.454Z,994.80
2022-11-25T08:12:21.453Z,994.81
2022-11-25T08:13:21.454Z,994.77
2022-11-25T08:14:21.431Z,994.76
2022-11-25T08:15:21.414Z,994.77
2022-11-25T08:16:21.468Z,994.76
2022-11-25T08:17:21.395Z,994.76
2022-11-25T08:18:21.404Z,994.76
2022-11-25T08:19:21.366Z,994.82
2022-11-25T08:20:21.380Z,994.86
2022-11-25T08:21:21.346Z,994.87
2022-11-25T08:22:21.347Z,994.87
2022-11-25T08:23:21.357Z,994.83
2022-11-25T08:24:21.340Z,994.84
2022-11-25T08:25:21.318Z,994.85
2022-11-25T08:26:21.309Z,994.85
2022-11-25T08:27:21.294Z,994.82
2022-11-25T08:28:21.305Z,994.83
2022-11-25T08:29:21.269Z,994.88
2022-11-25T08:30:21.267Z,994.81
2022-11-25T08:31:21.286Z,994.82
2022-11-25T08:32:21.248Z,994.81
2022-11-25T08:33:21.250Z,994.82
2022-11-25T08:34:21.226Z,994.77
2022-11-25T08:35:21.210Z,994.83
2022-11-25T08:36:21.210Z,994.90
2022-11-25T08:37:21.193Z,994.88
2022-11-25T08:38:21.209Z,994.89
2022-11-25T08:39:51.893Z,994.96
2022-11-25T08:40:22.162Z,994.91
2022-11-25T08:41:21.150Z,995.00
2022-11-25T08:42:21.152Z,994.95
2022-11-25T08:43:25.019Z,994.97
2022-11-25T08:44:22.122Z,994.99
2022-11-25T08:45:21.114Z,995.01
2022-11-25T08:46:21.177Z,995.06
2022-11-25T08:47:21.090Z,995.07
2022-11-25T08:48:21.104Z,995.11
2022-11-25T08:49:21.066Z,995.12
2022-11-25T08:50:21.073Z,995.14
2022-11-25T08:51:21.054Z,995.11
2022-11-25T08:52:21.044Z,995.14
2022-11-25T08:53:21.052Z,995.10
2022-11-25T08:54:21.026Z,995.14
2022-11-25T08:55:21.014Z,995.07
2022-11-25T08:56:25.791Z,995.12
2022-11-25T08:57:21.996Z,995.13
2022-11-25T08:58:21.006Z,995.12
2022-11-25T08:59:20.995Z,995.19
2022-11-25T09:00:20.965Z,995.10
2022-11-25T09:01:20.989Z,995.15
2022-11-25T09:02:20.991Z,995.14
2022-11-25T09:03:21.022Z,995.13
2022-11-25T09:04:20.920Z,995.12
2022-11-25T09:05:20.920Z,995.10
2022-11-25T09:06:20.898Z,995.13
2022-11-25T09:07:23.781Z,995.25
2022-11-25T09:08:21.908Z,995.24
2022-11-25T09:09:20.903Z,995.23
2022-11-25T09:10:20.859Z,995.22
2022-11-25T09:11:20.915Z,995.23
2022-11-25T09:12:20.840Z,995.21
2022-11-25T09:13:20.853Z,995.24
2022-11-25T09:14:20.891Z,995.24
2022-11-25T09:15:20.820Z,995.25
2022-11-25T09:16:20.868Z,995.28
2022-11-25T09:17:20.800Z,995.28
2022-11-25T09:18:20.813Z,995.32
2022-11-25T09:19:20.772Z,995.34
2022-11-25T09:20:20.827Z,995.28
2022-11-25T09:21:20.752Z,995.27
2022-11-25T09:22:20.739Z,995.35
2022-11-25T09:23:20.736Z,995.38
2022-11-25T09:24:20.734Z,995.38
2022-11-25T09:25:20.717Z,995.37
2022-11-25T09:26:20.694Z,995.40
2022-11-25T09:27:20.693Z,995.37
2022-11-25T09:28:20.674Z,995.38
2022-11-25T09:29:20.687Z,995.34
2022-11-25T09:30:20.654Z,995.38
2022-11-25T09:31:20.714Z,995.37
2022-11-25T09:32:20.658Z,995.44
2022-11-25T09:33:20.636Z,995.38
2022-11-25T09:34:20.627Z,995.42
2022-11-25T09:35:20.611Z,995.39
2022-11-25T09:36:20.598Z,995.47
2022-11-25T09:37:20.596Z,995.44
2022-11-25T09:38:20.588Z,995.43
2022-11-25T09:39:20.587Z,995.47
2022-11-25T09:40:20.645Z,995.50
2022-11-25T09:41:20.557Z,995.51
2022-11-25T09:42:20.538Z,995.44
2022-11-25T09:43:20.528Z,995.47
2022-11-25T09:44:20.529Z,995.47
2022-11-25T09:45:20.510Z,995.43
2022-11-25T09:46:20.540Z,995.46
2022-11-25T09:47:20.488Z,995.50
2022-11-25T09:48:20.470Z,995.49
2022-11-25T09:49:20.481Z,995.49
2022-11-25T09:50:20.513Z,995.50
2022-11-25T09:51:20.451Z,995.51
2022-11-25T09:52:20.441Z,995.47
2022-11-25T09:53:20.430Z,995.49
2022-11-25T09:54:20.431Z,995.51
2022-11-25T09:55:20.421Z,995.48
2022-11-25T09:56:20.391Z,995.54
2022-11-25T09:57:20.382Z,995.52
2022-11-25T09:58:20.371Z,995.54
2022-11-25T09:59:20.390Z,995.61
2022-11-25T10:00:20.412Z,995.56
2022-11-25T10:01:20.354Z,995.58
2022-11-25T10:02:20.394Z,995.57
2022-11-25T10:03:20.365Z,995.52
2022-11-25T10:04:20.343Z,995.57
2022-11-25T10:05:20.304Z,995.57
2022-11-25T10:06:20.370Z,995.55
2022-11-25T10:07:20.293Z,995.56
2022-11-25T10:08:20.266Z,995.59
2022-11-25T10:09:20.291Z,995.60
2022-11-25T10:10:20.246Z,995.59
2022-11-25T10:11:20.246Z,995.58
2022-11-25T10:12:20.227Z,995.55
2022-11-25T10:13:20.228Z,995.60
2022-11-25T10:14:20.227Z,995.62
2022-11-25T10:15:20.207Z,995.61
2022-11-25T10:16:20.216Z,995.58
2022-11-25T10:17:20.189Z,995.60
2022-11-25T10:18:20.168Z,995.59
2022-11-25T10:19:20.179Z,995.62
2022-11-25T10:20:20.151Z,995.60
2022-11-25T10:21:20.148Z,995.67
2022-11-25T10:22:20.131Z,995.66
2022-11-25T10:23:24.932Z,995.61
2022-11-25T10:24:21.132Z,995.64
2022-11-25T10:25:20.113Z,995.66
2022-11-25T10:26:20.091Z,995.65
2022-11-25T10:27:20.082Z,995.67
2022-11-25T10:28:20.064Z,995.61
2022-11-25T10:29:20.081Z,995.67
2022-11-25T10:30:20.043Z,995.62
2022-11-25T10:31:20.087Z,995.63
2022-11-25T10:32:20.035Z,995.61
2022-11-25T10:33:20.032Z,995.61
2022-11-25T10:34:20.024Z,995.64
2022-11-25T10:35:20.003Z,995.64
2022-11-25T10:36:19.984Z,995.65
2022-11-25T10:37:19.974Z,995.62
2022-11-25T10:38:19.965Z,995.67
2022-11-25T10:39:19.974Z,995.66
2022-11-25T10:40:19.944Z,995.64
2022-11-25T10:41:19.945Z,995.65
2022-11-25T10:42:19.936Z,995.65
2022-11-25T10:43:19.930Z,995.67
2022-11-25T10:44:19.929Z,995.64
2022-11-25T10:45:19.908Z,995.64
2022-11-25T10:46:19.955Z,995.64
2022-11-25T10:47:19.899Z,995.63
2022-11-25T10:48:19.872Z,995.69
2022-11-25T10:49:19.875Z,995.68
2022-11-25T10:50:19.866Z,995.68
2022-11-25T10:51:19.844Z,995.72
2022-11-25T10:52:19.827Z,995.68
2022-11-25T10:53:19.835Z,995.78
2022-11-25T10:54:26.833Z,995.68
2022-11-25T10:55:20.801Z,995.67
2022-11-25T10:56:19.781Z,995.76
2022-11-25T10:57:19.789Z,995.73
2022-11-25T10:58:19.759Z,995.76
2022-11-25T10:59:19.778Z,995.68
2022-11-25T11:00:19.795Z,995.70
2022-11-25T11:01:19.787Z,995.79
2022-11-25T11:02:19.787Z,995.75
2022-11-25T11:03:19.791Z,995.75
2022-11-25T11:04:19.712Z,995.65
2022-11-25T11:05:19.751Z,995.72
2022-11-25T11:06:19.683Z,995.70
2022-11-25T11:07:19.697Z,995.69
2022-11-25T11:08:19.660Z,995.73
2022-11-25T11:09:19.683Z,995.74
2022-11-25T11:10:19.640Z,995.72
2022-11-25T11:11:19.634Z,995.71
2022-11-25T11:12:19.633Z,995.71
2022-11-25T11:13:19.615Z,995.73
2022-11-25T11:14:19.614Z,995.70
2022-11-25T11:15:19.593Z,995.75
2022-11-25T11:16:19.629Z,995.76
2022-11-25T11:17:19.576Z,995.68
2022-11-25T11:18:19.555Z,995.70
2022-11-25T11:19:19.574Z,995.73
2022-11-25T11:20:19.556Z,995.76
2022-11-25T11:21:19.535Z,995.86
2022-11-25T11:22:19.516Z,995.79
2022-11-25T11:23:19.516Z,995.83
2022-11-25T11:24:19.518Z,995.83
2022-11-25T11:25:19.488Z,995.84
2022-11-25T11:26:19.478Z,995.86
2022-11-25T11:27:19.467Z,995.89
2022-11-25T11:28:19.458Z,995.86
2022-11-25T11:29:19.467Z,995.83
2022-11-25T11:30:19.439Z,995.81
2022-11-25T11:31:19.510Z,995.85
2022-11-25T11:32:19.419Z,995.88
2022-11-25T11:33:19.417Z,995.86
2022-11-25T11:34:19.411Z,995.91
2022-11-25T11:35:19.390Z,995.84
2022-11-25T11:36:19.392Z,995.86
2022-11-25T11:37:19.370Z,995.91
2022-11-25T11:38:19.369Z,995.90
2022-11-25T11:39:19.383Z,995.91
2022-11-25T11:40:19.334Z,995.92
2022-11-25T11:41:19.332Z,995.94
2022-11-25T11:42:19.312Z,995.89
2022-11-25T11:43:19.312Z,995.91
2022-11-25T11:44:19.313Z,995.88
2022-11-25T11:45:19.302Z,995.88
2022-11-25T11:46:19.305Z,995.87
2022-11-25T11:47:19.271Z,995.83
2022-11-25T11:48:19.254Z,995.86
2022-11-25T11:49:19.263Z,995.87
2022-11-25T11:50:19.226Z,995.86
2022-11-25T11:51:19.225Z,995.89
2022-11-25T11:52:19.213Z,995.82
2022-11-25T11:53:19.206Z,995.89
2022-11-25T11:54:19.207Z,995.96
2022-11-25T11:55:19.186Z,995.97
2022-11-25T11:56:34.796Z,995.96
2022-11-25T11:57:20.167Z,996.10
2022-11-25T11:58:19.163Z,996.02
2022-11-25T11:59:19.147Z,996.04
2022-11-25T12:00:19.147Z,996.09
2022-11-25T12:01:19.127Z,996.12
2022-11-25T12:02:19.179Z,996.12
2022-11-25T12:03:19.144Z,996.20
2022-11-25T12:04:19.087Z,996.11
2022-11-25T12:05:19.098Z,996.08
2022-11-25T12:06:19.068Z,996.10
2022-11-25T12:07:19.142Z,996.07
2022-11-25T12:08:19.046Z,996.13
2022-11-25T12:09:19.047Z,996.12
2022-11-25T12:10:19.040Z,996.18
2022-11-25T12:11:19.020Z,996.16
2022-11-25T12:12:19.002Z,996.13
2022-11-25T12:13:19.001Z,996.14
2022-11-25T12:14:18.982Z,996.09
2022-11-25T12:15:18.998Z,996.06
2022-11-25T12:16:19.028Z,996.05
2022-11-25T12:17:18.964Z,996.07
2022-11-25T12:18:18.943Z,996.12
2022-11-25T12:19:18.933Z,996.11
2022-11-25T12:20:18.945Z,996.12
2022-11-25T12:21:18.923Z,996.17
2022-11-25T12:22:18.915Z,996.21
2022-11-25T12:23:18.904Z,996.18
2022-11-25T12:24:18.885Z,996.18
2022-11-25T12:25:18.894Z,996.19
2022-11-25T12:26:18.865Z,996.23
2022-11-25T12:27:18.860Z,996.15
2022-11-25T12:28:18.845Z,996.14
2022-11-25T12:29:18.835Z,996.15